Meath Environmental Platform

Observations for Trim Market St

Time AQI Temp °C Hum % Pres Pa CO μg/m³ H₂S μg/m³ NO μg/m³ NO₂ μg/m³ O₃ μg/m³ SO₂ μg/m³ PM1 μg/m³ PM2.5 μg/m³ PM10 μg/m³
Friday 10 July 2026
14:05 1 41.6 26 67,220 0 0 0 7.91 4.54 5.37 5.7 8.42 10.19
14:04 1 41.7 26 67,222 0 0 0 1.58 45.82 6.8 3.56 6.77 7.45
14:03 1 41.7 26 67,224 0 0 0 9.31 14.19 5.11 2.85 5.69 5.74
14:02 1 41.7 26 67,228 0 0 0 1.11 25.65 6.52 2.85 6.24 6.86
14:00 1 41.8 26 67,226 0 0 0 0 32.41 7.87 2.14 5.7 5.74
13:59 1 41.8 26 67,228 0 0 0 0 31.15 7.2 2.85 5.7 6.27
13:58 1 41.9 25 67,262 0 0 0 0 25.66 7.46 2.14 5.71 6.28
13:57 1 42 25 67,276 0.16 0 0 0 40.48 8.15 2.14 5.16 5.67
13:56 1 42.2 25 67,262 0 0 0 3.13 23.7 5.98 2.14 5.72 6.29
13:55 1 42.4 25 67,266 0 0 0 4.8 15.74 5.52 2.14 5.17 5.69
13:54 1 42.6 25 67,296 0 0 0 0 30.6 7.57 2.85 6.28 6.91
13:52 1 42.8 25 67,302 0 0 0 4.91 28.56 5.07 2.14 5.73 6.3
13:51 1 42.8 25 67,280 0 0 0 0 24.36 8.27 1.43 5.17 5.69
13:49 1 42.6 26 67,260 0 0 0 0 20.09 6.29 2.14 5.7 6.27
13:48 1 42.4 26 67,245 0 0 0 1.51 16.9 4.55 3.56 6.78 7.46
13:47 1 42.2 26 67,228 0 0 0 2.34 25.6 5.14 2.85 6.22 6.85
13:46 1 42 26 67,218 0 0 0 0 30.92 6.88 3.56 6.77 7.45
13:45 1 41.8 26 67,200 0 0 0 0 31.22 5.74 2.85 6.21 6.84
13:44 1 41.7 26 67,183 0 0 0 0.55 34.18 5.42 3.56 6.76 7.52
13:41 1 41.4 26 67,169 0 0 0 0 34.73 5.22 2.85 6.2 6.64